Huvudsida
METAR-TAF:

METAR-TAF

Flygplatser :

Sogndals flygplats. Haukåsen

Sogndals, Norge

latitud: 61-09N, longitud: 007-08E, höjd: 49 m

Aktuellt väderrapport

Denna rapport gjordes för 8 timmar och 6 minuter sedan, klockan 20:20 UTC
Vind 8 kt från väst/sydväst
Temperatur 0°C
Fuktighet 100%
Tryck 992 hPa
Sikt: 9000 m
lätta snöbyar

METAR: ENSG 182020Z 24008KT 9000 -SHSN VV025 00/00 Q0992 RMK WIND 3806FT 27021KT

Tid: 05:26 (04:26 UTC)


TAF: saknas

Aktuella väderrapporter och prognoser från 4000 flygplatser (METAR- och TAF-rapporter).

De tillgängliga stationerna syns som gula och röda prickar på kartan.

För musen över prickarna för att se namnen på stationerna.

Klicka sedan för att få väderrapporter och prognoser.

För att ändra kartan: Klicka på de gröna knapparna med ett svart kors på för att zooma in; den gröna knappen med ett streck på för att zooma ut; eller på de gröna pilarna för angränsande kartor.


METAR-TAF: